Rockford, Michigan
Current Conditions -  °F | °C
As of 2:53 PM on Thursday 29 Jan 2015 (Local Time) from KGRR Reporting Station
Haze Haze  
Wind Chill: 22°   Ceiling: 1600
Heat Index: 32°   Visibility: 5mi
Dew Point: 27°   Wind: 14mph
Humidity: 82%   Direction: 320°NW
Pressure: 29.83"   Gusts: NA
Location:  43.13°N, 85.56°W
Report Text: KGRR 291953Z 32012KT 5SM HZ BKN016 OVC055 00/M03 A2983 RMK AO2 SNE53 SLP109 P0000 T00001028
Loading
Personal Weather Stations






























Interactive Weather Map New forecast layout! Learn more

10-Day Weather Forecast

Advertisements
Track Severe Weather on mobile